Time;durP1;ratioP1;P1;durP2;ratioP2;P2;SDS_P1;SDS_P2;PMS_P1;PMS_P2;Temp;Humidity;BMP_temperature;BMP_pressure;BME280_temperature;BME280_humidity;BME280_pressure;Samples;Min_cycle;Max_cycle;Signal;HPM_P1;HPM_P2
2021/04/02 00:01:11;;;;;;;38.95;28.05;;;;;;;11.49;66.22;98595.24;113652;1200;64381;-81
2021/04/02 00:03:39;;;;;;;37.77;25.07;;;;;;;11.50;66.10;98594.27;113643;1200;64375;-81
2021/04/02 00:06:11;;;;;;;40.43;24.30;;;;;;;11.53;66.19;98596.69;113683;1200;64502;-82
2021/04/02 00:08:40;;;;;;;35.10;23.57;;;;;;;11.56;66.48;98602.66;113632;1199;64388;-82
2021/04/02 00:11:13;;;;;;;50.40;27.20;;;;;;;11.57;66.34;98601.68;113638;1199;64435;-80
2021/04/02 00:13:44;;;;;;;41.95;26.95;;;;;;;11.59;66.47;98604.24;113696;1199;64400;-81
2021/04/02 00:16:14;;;;;;;39.80;26.53;;;;;;;11.61;66.30;98607.62;113641;1200;64471;-81
2021/04/02 00:18:44;;;;;;;36.73;27.10;;;;;;;11.61;66.55;98605.83;113636;1199;64396;-80
2021/04/02 00:21:14;;;;;;;40.47;30.70;;;;;;;11.61;66.45;98602.28;113650;1199;64435;-82
2021/04/02 00:23:41;;;;;;;53.07;32.20;;;;;;;11.61;66.25;98604.95;113621;1199;64480;-82
2021/04/02 00:26:15;;;;;;;51.90;31.17;;;;;;;11.60;66.77;98604.11;113616;1200;64429;-81
2021/04/02 00:28:45;;;;;;;37.80;25.90;;;;;;;11.61;66.86;98599.61;113669;1200;64378;-81
2021/04/02 00:31:13;;;;;;;36.33;22.87;;;;;;;11.62;66.75;98604.84;113633;1199;64359;-81
2021/04/02 00:33:40;;;;;;;32.83;21.57;;;;;;;11.61;66.66;98603.16;113616;1199;64561;-81
2021/04/02 00:36:10;;;;;;;32.83;21.87;;;;;;;11.62;66.76;98604.00;113644;1200;64388;-80
2021/04/02 00:38:40;;;;;;;30.85;19.40;;;;;;;11.61;66.82;98607.62;113598;1199;64257;-80
2021/04/02 00:41:14;;;;;;;24.40;12.63;;;;;;;11.61;67.80;98612.95;113686;1199;64478;-79
2021/04/02 00:43:45;;;;;;;20.15;9.40;;;;;;;11.52;68.69;98611.02;113687;1200;64490;-80
2021/04/02 00:46:15;;;;;;;15.33;8.87;;;;;;;11.35;69.66;98614.98;113634;1200;64558;-79
2021/04/02 00:48:44;;;;;;;24.33;11.47;;;;;;;11.20;69.95;98619.66;113647;1200;64375;-80
2021/04/02 00:51:25;;;;;;;19.63;9.97;;;;;;;11.04;70.95;98622.63;113675;1199;64503;-79
2021/04/02 00:53:53;;;;;;;19.55;10.15;;;;;;;10.92;71.54;98616.38;113668;1200;64815;-80
2021/04/02 00:56:21;;;;;;;22.63;10.53;;;;;;;10.83;71.24;98610.89;113627;1200;64479;-80
2021/04/02 00:58:52;;;;;;;26.37;12.30;;;;;;;10.75;71.87;98611.46;113678;1199;64471;-80
2021/04/02 01:01:20;;;;;;;27.33;15.30;;;;;;;10.72;71.73;98611.70;113770;1200;64388;-80
2021/04/02 01:03:48;;;;;;;33.00;16.80;;;;;;;10.66;71.83;98620.12;113715;1199;64700;-80
2021/04/02 01:06:23;;;;;;;31.45;17.30;;;;;;;10.62;72.13;98610.66;113538;1199;64473;-80
2021/04/02 01:08:51;;;;;;;30.53;17.03;;;;;;;10.58;73.34;98609.17;113775;1199;64478;-80
2021/04/02 01:11:22;;;;;;;24.80;16.60;;;;;;;10.49;73.52;98616.03;113583;1200;64472;-80
2021/04/02 01:13:56;;;;;;;33.20;16.27;;;;;;;10.41;73.45;98623.73;113588;1199;64390;-79
2021/04/02 01:16:33;;;;;;;22.07;13.60;;;;;;;10.31;73.77;98615.55;113592;1199;64404;-81
2021/04/02 01:19:06;;;;;;;21.70;14.30;;;;;;;10.23;74.50;98616.05;113532;1200;64362;-80
2021/04/02 01:21:42;;;;;;;18.53;11.50;;;;;;;10.14;74.65;98611.41;113564;1200;64433;-81
2021/04/02 01:24:17;;;;;;;16.53;11.07;;;;;;;10.06;75.12;98605.78;113681;1200;64557;-80
2021/04/02 01:26:54;;;;;;;16.90;11.20;;;;;;;10.02;74.83;98604.28;113693;1199;64372;-81
2021/04/02 01:29:24;;;;;;;19.90;12.60;;;;;;;9.96;74.76;98602.91;113505;1200;64372;-80
2021/04/02 01:31:56;;;;;;;20.85;12.30;;;;;;;9.95;74.96;98608.33;113619;1200;64378;-79
2021/04/02 01:34:32;;;;;;;25.03;14.60;;;;;;;9.91;74.85;98602.38;113650;1200;64464;-79
2021/04/02 01:37:41;;;;;;;22.95;13.50;;;;;;;9.87;74.74;98607.08;113613;1199;64473;-79
2021/04/02 01:40:14;;;;;;;23.97;15.50;;;;;;;9.85;74.75;98595.68;113166;1203;64381;-80
2021/04/02 01:42:44;;;;;;;26.25;18.90;;;;;;;9.83;75.32;98600.25;113169;1203;64505;-80
2021/04/02 01:45:17;;;;;;;25.43;18.40;;;;;;;9.81;75.36;98611.97;113469;1200;64541;-80
2021/04/02 01:47:45;;;;;;;30.30;19.80;;;;;;;9.79;75.41;98608.55;113642;1200;64352;-79
2021/04/02 01:50:18;;;;;;;32.27;21.10;;;;;;;9.77;75.73;98614.00;113668;1199;64507;-80
2021/04/02 01:52:47;;;;;;;28.75;19.40;;;;;;;9.76;76.36;98614.94;113635;1199;64398;-80
2021/04/02 01:55:16;;;;;;;30.35;20.95;;;;;;;9.75;76.06;98609.74;113603;1200;64449;-80
2021/04/02 01:57:48;;;;;;;31.80;20.35;;;;;;;9.75;76.13;98615.06;113533;1200;64496;-80
2021/04/02 02:00:36;;;;;;;33.93;21.17;;;;;;;9.76;76.21;98612.28;113599;1200;64461;-80
2021/04/02 02:03:06;;;;;;;27.63;20.77;;;;;;;9.73;76.27;98612.50;113751;1200;64452;-81
2021/04/02 02:05:36;;;;;;;32.90;23.80;;;;;;;9.72;76.96;98608.14;113736;1200;64423;-81
2021/04/02 02:08:06;;;;;;;31.63;21.50;;;;;;;9.69;76.65;98605.70;113704;1199;64440;-82
2021/04/02 02:10:36;;;;;;;32.50;22.48;;;;;;;9.68;76.48;98599.50;113748;1199;64393;-81
2021/04/02 02:13:06;;;;;;;30.70;21.25;;;;;;;9.71;76.71;98600.26;113695;1199;64317;-81
2021/04/02 02:15:40;;;;;;;28.47;21.17;;;;;;;9.73;76.81;98604.52;113760;1199;64538;-82
2021/04/02 02:18:12;;;;;;;27.60;19.80;;;;;;;9.77;77.41;98608.68;113747;1199;64362;-81
2021/04/02 02:20:43;;;;;;;30.50;21.95;;;;;;;9.79;77.20;98619.20;113774;1200;64343;-80
2021/04/02 02:23:11;;;;;;;34.00;23.80;;;;;;;9.78;77.03;98615.69;113697;1200;64446;-82
2021/04/02 02:25:39;;;;;;;36.23;23.30;;;;;;;9.76;76.90;98612.28;113572;1199;64513;-82
2021/04/02 02:28:07;;;;;;;35.23;23.93;;;;;;;9.76;77.00;98609.62;113618;1200;64455;-81
2021/04/02 02:30:35;;;;;;;33.30;23.10;;;;;;;9.79;77.01;98613.88;113547;1199;64429;-80
2021/04/02 02:33:04;;;;;;;33.20;21.83;;;;;;;9.80;77.29;98612.94;113706;1200;64946;-81
2021/04/02 02:35:32;;;;;;;33.57;23.87;;;;;;;9.81;77.26;98620.80;113662;1200;64436;-82
2021/04/02 02:38:02;;;;;;;33.70;22.80;;;;;;;9.85;77.33;98627.62;113615;1200;64513;-80
2021/04/02 02:40:33;;;;;;;34.97;24.93;;;;;;;9.84;77.23;98625.05;113659;1200;64400;-81
2021/04/02 02:43:01;;;;;;;34.77;25.13;;;;;;;9.87;77.50;98625.71;113590;1200;64486;-80
2021/04/02 02:45:31;;;;;;;36.60;25.20;;;;;;;9.88;77.75;98621.23;113647;1200;64411;-82
2021/04/02 02:47:58;;;;;;;;;;;;;;;9.87;78.00;98627.49;113651;1206;64387;-82
2021/04/02 02:50:30;;;;;;;37.53;26.93;;;;;;;9.86;77.76;98623.98;113588;1198;64538;-81
2021/04/02 02:52:59;;;;;;;38.50;27.63;;;;;;;9.85;77.90;98622.30;113639;1199;64445;-80
2021/04/02 02:55:31;;;;;;;42.95;27.10;;;;;;;9.87;77.67;98619.51;113657;1200;64445;-81
2021/04/02 02:58:01;;;;;;;36.47;25.80;;;;;;;9.90;77.92;98627.30;113639;1200;64413;-82
2021/04/02 03:00:42;;;;;;;40.75;28.75;;;;;;;9.92;77.93;98636.01;113672;1199;64317;-81
2021/04/02 03:03:15;;;;;;;41.57;28.03;;;;;;;9.91;77.87;98636.98;113574;1199;64435;-81
2021/04/02 03:05:47;;;;;;;44.95;31.15;;;;;;;9.89;78.21;98631.75;113627;1199;64471;-81
2021/04/02 03:08:25;;;;;;;44.30;32.30;;;;;;;9.88;78.83;98637.20;113608;1199;64432;-82
2021/04/02 03:10:55;;;;;;;40.50;30.20;;;;;;;9.85;78.68;98629.44;113689;1199;64391;-81
2021/04/02 03:13:23;;;;;;;;;;;;;;;9.83;79.10;98626.02;113683;1203;64391;-82
2021/04/02 03:15:59;;;;;;;39.77;28.37;;;;;;;9.80;79.27;98621.77;113608;1199;64484;-82
2021/04/02 03:18:28;;;;;;;38.53;26.37;;;;;;;9.78;79.25;98621.02;113537;1200;64391;-82
2021/04/02 03:20:58;;;;;;;34.97;27.33;;;;;;;9.79;79.21;98625.36;113634;1199;64487;-82
2021/04/02 03:23:28;;;;;;;35.70;26.80;;;;;;;9.79;79.49;98627.18;113677;1200;64400;-82
2021/04/02 03:25:57;;;;;;;44.50;30.30;;;;;;;9.78;79.50;98636.13;113703;1200;64487;-82
2021/04/02 03:28:25;;;;;;;37.33;27.13;;;;;;;9.77;80.00;98642.39;113687;1200;64519;-83
2021/04/02 03:30:54;;;;;;;43.90;30.17;;;;;;;9.75;79.66;98642.52;113697;1200;64356;-81
2021/04/02 03:33:51;;;;;;;36.60;27.97;;;;;;;9.73;79.68;98639.11;113763;1200;64394;-81
2021/04/02 03:36:20;;;;;;;38.30;27.50;;;;;;;9.73;80.00;98648.91;113656;1199;64324;-81
2021/04/02 03:38:50;;;;;;;40.05;29.35;;;;;;;9.72;79.98;98652.54;113702;1199;64388;-82
2021/04/02 03:41:39;;;;;;;38.30;30.95;;;;;;;9.70;80.19;98654.45;113581;1200;64749;-82
2021/04/02 03:44:13;;;;;;;49.83;33.63;;;;;;;9.65;80.08;98652.94;113632;1199;64398;-82
2021/04/02 03:46:44;;;;;;;47.07;32.57;;;;;;;9.61;79.89;98650.58;113613;1200;64595;-81
2021/04/02 03:49:16;;;;;;;41.97;31.77;;;;;;;9.55;79.91;98662.50;113665;1200;64435;-81
2021/04/02 03:51:45;;;;;;;40.77;31.03;;;;;;;9.52;79.80;98654.73;113693;1199;64846;-82
2021/04/02 03:54:15;;;;;;;42.70;30.50;;;;;;;9.50;79.64;98664.62;113622;1200;64413;-82
2021/04/02 03:56:50;;;;;;;40.85;30.55;;;;;;;9.50;79.62;98661.96;113644;1200;64388;-82
2021/04/02 03:59:23;;;;;;;40.53;32.03;;;;;;;9.50;79.95;98664.62;113670;1199;64350;-81
2021/04/02 04:01:56;;;;;;;44.43;33.27;;;;;;;9.52;79.71;98665.38;113712;1199;64365;-81
2021/04/02 04:04:27;;;;;;;42.90;33.80;;;;;;;9.53;79.97;98667.09;113621;1200;64263;-81
2021/04/02 04:06:59;;;;;;;43.15;32.90;;;;;;;9.49;80.01;98670.91;113659;1200;64426;-82
2021/04/02 04:09:29;;;;;;;42.50;32.87;;;;;;;9.47;79.87;98670.16;113640;1200;64321;-81
2021/04/02 04:11:57;;;;;;;43.38;33.38;;;;;;;9.48;79.98;98676.31;113657;1199;64423;-81
2021/04/02 04:14:27;;;;;;;47.65;33.85;;;;;;;9.48;79.82;98671.00;113606;1199;64399;-81
2021/04/02 04:16:58;;;;;;;46.45;32.90;;;;;;;9.47;80.00;98679.95;113672;1200;64381;-81
2021/04/02 04:19:28;;;;;;;42.37;34.27;;;;;;;9.43;80.03;98680.16;113652;1199;64566;-81
2021/04/02 04:21:56;;;;;;;;;;;;;;;9.42;80.65;98691.73;113655;1207;64819;-81
2021/04/02 04:24:26;;;;;;;38.47;28.97;;;;;;;9.37;80.56;98687.68;113773;1199;64404;-83
2021/04/02 04:26:54;;;;;;;30.70;25.10;;;;;;;9.29;80.05;98696.17;113764;1200;64443;-82
2021/04/02 04:29:29;;;;;;;31.30;24.67;;;;;;;9.25;80.18;98693.84;113714;1199;64375;-82
2021/04/02 04:31:59;;;;;;;25.00;22.23;;;;;;;9.21;80.23;98688.70;113718;1199;64381;-82
2021/04/02 04:34:37;;;;;;;27.40;23.10;;;;;;;9.15;79.88;98689.11;113654;1199;64451;-83
2021/04/02 04:37:07;;;;;;;26.85;23.95;;;;;;;9.11;79.99;98695.61;113743;1199;64388;-82
2021/04/02 04:39:38;;;;;;;25.17;21.63;;;;;;;9.07;79.79;98706.53;113766;1199;64419;-83
2021/04/02 04:42:10;;;;;;;28.33;22.93;;;;;;;9.01;79.77;98697.16;113651;1199;64583;-81
2021/04/02 04:44:42;;;;;;;27.25;22.85;;;;;;;8.99;79.98;98709.69;113795;1200;64397;-80
2021/04/02 04:47:10;;;;;;;27.90;23.45;;;;;;;8.98;79.62;98716.81;113737;1199;64378;-81
2021/04/02 04:49:41;;;;;;;26.70;24.00;;;;;;;8.95;80.02;98713.48;113661;1200;64426;-81
2021/04/02 04:52:16;;;;;;;28.58;24.95;;;;;;;8.91;80.04;98731.44;113705;1199;64413;-81
2021/04/02 04:54:47;;;;;;;30.47;26.90;;;;;;;8.87;80.08;98734.38;113773;1200;64320;-82
2021/04/02 04:57:23;;;;;;;26.80;23.35;;;;;;;8.86;80.03;98732.69;113725;1199;64472;-83
2021/04/02 04:59:52;;;;;;;29.13;25.07;;;;;;;8.82;80.08;98747.11;113730;1199;64561;-82
2021/04/02 05:02:21;;;;;;;25.77;21.87;;;;;;;8.78;79.77;98765.06;113747;1199;64477;-83
2021/04/02 05:04:53;;;;;;;23.17;18.07;;;;;;;8.67;78.91;98765.74;113754;1200;64384;-81
2021/04/02 05:07:23;;;;;;;20.45;16.30;;;;;;;8.55;78.66;98777.97;113708;1199;64394;-81
2021/04/02 05:10:01;;;;;;;18.95;15.38;;;;;;;8.38;78.02;98767.52;113664;1200;64394;-81
2021/04/02 05:12:29;;;;;;;18.23;15.57;;;;;;;8.21;78.13;98780.97;113658;1200;64376;-81
2021/04/02 05:15:04;;;;;;;18.27;14.80;;;;;;;8.07;78.31;98787.11;113742;1199;64388;-81
2021/04/02 05:17:35;;;;;;;17.75;15.05;;;;;;;7.94;78.53;98786.98;113729;1199;64478;-81
2021/04/02 05:20:05;;;;;;;18.97;16.97;;;;;;;7.86;78.85;98800.70;113779;1200;64462;-82
2021/04/02 05:22:36;;;;;;;18.00;15.70;;;;;;;7.73;79.34;98805.02;113719;1200;64471;-82
2021/04/02 05:25:13;;;;;;;19.35;17.10;;;;;;;7.63;79.55;98814.45;113804;1199;64710;-82
2021/04/02 05:27:44;;;;;;;18.43;16.55;;;;;;;7.55;79.57;98822.00;113832;1200;64553;-80
2021/04/02 05:30:14;;;;;;;22.70;18.83;;;;;;;7.50;79.69;98829.36;113933;1199;64496;-80
2021/04/02 05:32:42;;;;;;;17.93;16.13;;;;;;;7.44;79.74;98830.57;113862;1200;64368;-80
2021/04/02 05:35:14;;;;;;;18.77;16.77;;;;;;;7.39;79.33;98825.52;113855;1199;64362;-80
2021/04/02 05:37:45;;;;;;;16.90;15.20;;;;;;;7.36;78.94;98822.20;113647;1200;64480;-81
2021/04/02 05:40:14;;;;;;;16.17;14.63;;;;;;;7.33;78.91;98825.03;113675;1200;64375;-81
2021/04/02 05:42:51;;;;;;;18.07;16.33;;;;;;;7.31;79.09;98819.80;113741;1200;64480;-82
2021/04/02 05:45:22;;;;;;;19.40;17.40;;;;;;;7.31;78.81;98841.01;113684;1199;64381;-81
2021/04/02 05:47:57;;;;;;;18.05;16.25;;;;;;;7.39;78.63;98835.28;113679;1200;64388;-81
2021/04/02 05:50:27;;;;;;;17.85;16.05;;;;;;;7.48;78.21;98837.42;113675;1200;64499;-81
2021/04/02 05:52:57;;;;;;;17.87;15.40;;;;;;;7.58;77.71;98829.77;113634;1199;64455;-81
2021/04/02 05:55:28;;;;;;;17.10;15.30;;;;;;;7.60;77.47;98841.16;113680;1200;64666;-82
2021/04/02 05:58:02;;;;;;;18.55;16.55;;;;;;;7.58;77.34;98843.03;113640;1199;64339;-82
2021/04/02 06:00:34;;;;;;;16.40;14.70;;;;;;;7.51;77.33;98844.34;113658;1200;64455;-80
2021/04/02 06:03:06;;;;;;;17.87;15.70;;;;;;;7.41;77.12;98849.31;113700;1199;64480;-81
2021/04/02 06:05:37;;;;;;;16.90;14.75;;;;;;;7.31;77.34;98842.81;113656;1200;64491;-83
2021/04/02 06:08:07;;;;;;;18.30;16.35;;;;;;;7.19;77.67;98855.81;113615;1199;64347;-81
2021/04/02 06:10:36;;;;;;;23.35;18.65;;;;;;;7.07;77.90;98861.78;113634;1200;64353;-81
2021/04/02 06:13:07;;;;;;;21.85;18.10;;;;;;;6.94;78.57;98858.94;113632;1200;65615;-80
2021/04/02 06:15:37;;;;;;;22.35;17.40;;;;;;;6.74;78.81;98854.73;113600;1199;64439;-81
2021/04/02 06:18:09;;;;;;;22.50;18.27;;;;;;;6.57;79.67;98860.05;113637;1200;64500;-80
2021/04/02 06:20:43;;;;;;;22.20;18.10;;;;;;;6.45;79.76;98860.69;113714;1200;64388;-81
2021/04/02 06:23:17;;;;;;;26.73;20.73;;;;;;;6.37;79.95;98858.44;113687;1200;64333;-83
2021/04/02 06:26:04;;;;;;;26.27;21.47;;;;;;;6.27;79.81;98870.47;113628;1199;64605;-81
2021/04/02 06:28:36;;;;;;;25.87;20.53;;;;;;;6.26;80.21;98858.15;113737;1199;64532;-83
2021/04/02 06:31:17;;;;;;;25.43;19.57;;;;;;;6.26;79.99;98871.38;113684;1199;64381;-82
2021/04/02 06:33:54;;;;;;;21.27;17.90;;;;;;;6.33;79.90;98863.05;113534;1200;64378;-82
2021/04/02 06:36:26;;;;;;;15.57;12.77;;;;;;;6.51;79.36;98863.03;113615;1199;64490;-82
2021/04/02 06:38:58;;;;;;;14.85;12.40;;;;;;;6.68;78.94;98870.08;113604;1200;64401;-82
2021/04/02 06:41:31;;;;;;;8.80;7.63;;;;;;;6.81;77.79;98861.39;113673;1200;64452;-81
2021/04/02 06:44:07;;;;;;;8.87;8.07;;;;;;;6.95;77.10;98865.97;113639;1200;64378;-81
2021/04/02 06:46:39;;;;;;;6.97;6.27;;;;;;;7.12;76.21;98872.14;113689;1199;64352;-81
2021/04/02 06:49:15;;;;;;;5.90;5.40;;;;;;;7.32;75.67;98884.27;113647;1199;64484;-82
2021/04/02 06:51:46;;;;;;;6.35;5.75;;;;;;;7.45;75.40;98891.48;113678;1199;64653;-82
2021/04/02 06:54:15;;;;;;;6.15;5.40;;;;;;;7.36;74.63;98894.63;113670;1200;64385;-82
2021/04/02 06:56:47;;;;;;;6.60;6.00;;;;;;;7.26;74.67;98896.92;113702;1199;64375;-82
2021/04/02 06:59:17;;;;;;;6.10;5.63;;;;;;;7.10;74.92;98903.16;113639;1199;64465;-81
2021/04/02 07:01:48;;;;;;;7.10;6.50;;;;;;;6.99;75.00;98911.69;113571;1200;64464;-82
2021/04/02 07:04:20;;;;;;;6.50;5.90;;;;;;;6.92;74.97;98905.84;113641;1199;64545;-82
2021/04/02 07:06:57;;;;;;;10.50;8.40;;;;;;;6.91;74.86;98903.30;113658;1199;64583;-81
2021/04/02 07:09:28;;;;;;;9.03;8.23;;;;;;;6.79;74.35;98905.67;113665;1199;64359;-82
2021/04/02 07:12:02;;;;;;;8.25;7.45;;;;;;;6.64;74.42;98921.50;113646;1199;64467;-82
2021/04/02 07:14:32;;;;;;;9.97;9.13;;;;;;;6.59;74.82;98917.30;113653;1200;64352;-83
2021/04/02 07:17:00;;;;;;;9.08;8.30;;;;;;;6.67;74.80;98919.55;113687;1199;64430;-82
2021/04/02 07:19:28;;;;;;;9.50;8.67;;;;;;;6.72;74.91;98917.52;113671;1200;64618;-82
2021/04/02 07:21:58;;;;;;;10.67;9.57;;;;;;;6.80;74.74;98915.31;113665;1199;64426;-82
2021/04/02 07:24:27;;;;;;;10.48;9.58;;;;;;;6.89;73.89;98915.76;113661;1200;64400;-82
2021/04/02 07:26:55;;;;;;;9.40;8.60;;;;;;;6.95;74.08;98918.07;113688;1199;64477;-81
2021/04/02 07:29:25;;;;;;;10.33;9.43;;;;;;;6.96;73.79;98925.10;113698;1199;64689;-81
2021/04/02 07:31:53;;;;;;;10.40;9.40;;;;;;;6.89;74.17;98929.86;113665;1199;64459;-82
2021/04/02 07:34:21;;;;;;;10.00;9.07;;;;;;;6.87;74.25;98922.92;113618;1199;64471;-82
2021/04/02 07:36:49;;;;;;;12.33;11.10;;;;;;;6.89;74.27;98931.66;113729;1200;64381;-82
2021/04/02 07:39:26;;;;;;;13.17;11.83;;;;;;;6.91;74.22;98938.58;113679;1199;64372;-82
2021/04/02 07:41:56;;;;;;;12.50;11.30;;;;;;;6.71;74.30;98950.20;113675;1199;64411;-82
2021/04/02 07:44:25;;;;;;;11.95;10.85;;;;;;;6.57;74.87;98950.08;113698;1199;64423;-82
2021/04/02 07:47:07;;;;;;;12.23;11.13;;;;;;;6.53;75.17;98959.09;113755;1200;64349;-83
2021/04/02 07:49:51;;;;;;;12.73;11.43;;;;;;;6.53;74.91;98965.28;113728;1200;64385;-83
2021/04/02 07:52:38;;;;;;;14.33;12.93;;;;;;;6.45;74.91;98966.58;113732;1200;64349;-81
2021/04/02 07:55:05;;;;;;;13.20;12.00;;;;;;;6.33;74.40;98960.98;113751;1199;64486;-83
2021/04/02 07:57:48;;;;;;;14.13;12.83;;;;;;;6.29;74.40;98961.20;113657;1200;64417;-82
2021/04/02 08:00:16;;;;;;;15.83;14.27;;;;;;;6.28;74.87;98978.88;113618;1200;64483;-81
2021/04/02 08:02:44;;;;;;;15.70;14.20;;;;;;;6.31;74.48;98981.36;113673;1200;64318;-81
2021/04/02 08:05:15;;;;;;;16.10;14.60;;;;;;;6.31;74.53;98978.72;113734;1199;64394;-81
2021/04/02 08:07:47;;;;;;;15.83;14.33;;;;;;;6.29;74.41;98988.55;113654;1200;64541;-81
2021/04/02 08:10:16;;;;;;;14.35;12.85;;;;;;;6.27;74.25;98992.20;113726;1200;64349;-81
2021/04/02 08:12:43;;;;;;;14.10;12.80;;;;;;;6.24;74.28;98984.39;113605;1199;64439;-80
2021/04/02 08:15:16;;;;;;;14.27;12.70;;;;;;;6.30;74.25;98995.55;113600;1200;64420;-82
2021/04/02 08:17:44;;;;;;;15.90;14.40;;;;;;;6.34;74.40;99005.02;113638;1199;64385;-81
2021/04/02 08:20:13;;;;;;;16.37;13.30;;;;;;;6.37;74.11;98998.72;113675;1200;64579;-81
2021/04/02 08:22:42;;;;;;;17.53;15.63;;;;;;;6.33;74.21;98998.03;113643;1200;64337;-81
2021/04/02 08:25:12;;;;;;;18.93;17.17;;;;;;;6.31;74.22;99007.83;113582;1200;64395;-82
2021/04/02 08:27:40;;;;;;;20.93;16.63;;;;;;;6.30;73.90;99015.86;113637;1200;64377;-81
2021/04/02 08:30:12;;;;;;;17.07;15.23;;;;;;;6.32;73.48;99014.01;113754;1199;64448;-82
2021/04/02 08:32:44;;;;;;;22.13;18.87;;;;;;;6.25;73.17;99020.52;113765;1199;64400;-81
2021/04/02 08:35:14;;;;;;;21.17;18.90;;;;;;;6.18;73.10;99019.09;113712;1200;64432;-81
2021/04/02 08:38:00;;;;;;;21.40;18.10;;;;;;;6.21;73.22;99014.50;113753;1199;64496;-82
2021/04/02 08:40:28;;;;;;;21.85;18.40;;;;;;;6.21;73.14;99019.80;113414;1200;64398;-81
2021/04/02 08:43:03;;;;;;;16.63;15.00;;;;;;;6.27;73.04;99018.67;113527;1200;64368;-81
2021/04/02 08:45:36;;;;;;;14.65;12.50;;;;;;;6.32;72.96;99019.30;113569;1200;64385;-82
2021/04/02 08:48:04;;;;;;;14.40;12.00;;;;;;;6.33;72.35;99021.00;113568;1199;64516;-82
2021/04/02 08:50:34;;;;;;;16.53;14.83;;;;;;;6.35;72.53;99025.28;113688;1199;64369;-81
2021/04/02 08:53:07;;;;;;;19.17;17.23;;;;;;;6.38;72.83;99027.78;113718;1199;64320;-82
2021/04/02 08:55:44;;;;;;;18.27;16.33;;;;;;;6.41;72.45;99023.27;113670;1200;64384;-82
2021/04/02 08:58:13;;;;;;;19.47;17.47;;;;;;;6.41;72.80;99028.56;113715;1199;64563;-82
2021/04/02 09:00:43;;;;;;;18.30;16.40;;;;;;;6.45;72.50;99027.47;113737;1200;64439;-82
2021/04/02 09:03:15;;;;;;;18.50;14.80;;;;;;;6.46;72.58;99023.91;113638;1200;64388;-81
2021/04/02 09:05:43;;;;;;;16.10;13.50;;;;;;;6.44;72.15;99034.55;113711;1200;64487;-81
2021/04/02 09:08:12;;;;;;;15.83;14.23;;;;;;;6.41;72.02;99033.86;113632;1198;64451;-81
2021/04/02 09:10:42;;;;;;;17.17;15.37;;;;;;;6.37;71.91;99034.02;113650;1199;64381;-82
2021/04/02 09:13:10;;;;;;;15.30;13.70;;;;;;;6.32;71.38;99032.53;113684;1199;64369;-82
2021/04/02 10:02:53;;;;;;;14.93;10.87;;;;;;;10.28;62.14;98999.31;113801;1200;64340;-84
2021/04/02 10:05:20;;;;;;;11.17;10.27;;;;;;;10.53;62.11;99007.40;113721;1200;64308;-84
2021/04/02 10:07:49;;;;;;;10.90;9.90;;;;;;;10.53;61.72;98996.73;113715;1199;64547;-85
2021/04/02 10:10:16;;;;;;;11.03;9.93;;;;;;;10.75;60.39;98998.80;113746;1199;64369;-85
2021/04/02 10:20:33;;;;;;;11.30;10.30;;;;;;;10.63;58.51;98985.45;113812;1199;64439;-84
2021/04/02 10:23:00;;;;;;;13.15;11.85;;;;;;;10.49;58.32;98979.23;113614;1200;64843;-85
2021/04/02 10:25:26;;;;;;;11.53;10.53;;;;;;;10.25;58.00;98984.35;113698;1199;64388;-86
2021/04/02 10:27:53;;;;;;;11.63;10.63;;;;;;;10.23;58.94;98990.73;113796;1200;64382;-84
2021/04/02 10:30:21;;;;;;;12.35;11.25;;;;;;;10.19;58.48;98998.08;113908;1199;64237;-83
2021/04/02 10:32:47;;;;;;;13.85;12.10;;;;;;;10.07;57.84;98996.20;113713;1200;64513;-84
2021/04/02 10:35:14;;;;;;;11.57;10.47;;;;;;;10.07;57.41;98998.87;113749;1199;64535;-85
2021/04/02 10:37:41;;;;;;;13.35;12.15;;;;;;;10.22;57.49;98992.55;113852;1200;64381;-84
2021/04/02 10:40:08;;;;;;;14.23;12.93;;;;;;;10.42;57.25;98999.23;113806;1199;64391;-84
2021/04/02 10:42:36;;;;;;;15.30;13.90;;;;;;;10.49;56.83;98994.38;113754;1199;64545;-84
2021/04/02 10:45:04;;;;;;;13.57;12.47;;;;;;;10.68;55.68;98985.99;113680;1199;64503;-84
2021/04/02 10:47:30;;;;;;;12.80;11.70;;;;;;;10.79;56.01;98987.93;113758;1200;64529;-85
2021/04/02 10:49:57;;;;;;;11.90;10.93;;;;;;;10.83;56.24;98984.11;113714;1200;64326;-84
2021/04/02 10:52:23;;;;;;;13.87;12.73;;;;;;;10.58;54.88;98992.89;113738;1200;64391;-85
2021/04/02 10:54:50;;;;;;;14.93;13.67;;;;;;;10.29;55.69;98983.24;113720;1200;64426;-84
2021/04/02 10:57:17;;;;;;;14.20;13.00;;;;;;;10.25;56.41;98979.02;113845;1200;64493;-84
2021/04/02 10:59:44;;;;;;;12.83;11.63;;;;;;;10.27;55.48;98981.60;113766;1199;64362;-84
2021/04/02 11:02:10;;;;;;;12.50;11.37;;;;;;;10.29;55.32;98975.25;113683;1199;64372;-83
2021/04/02 11:04:40;;;;;;;12.85;11.75;;;;;;;10.34;54.29;98969.59;113645;1200;64385;-83
2021/04/02 11:07:07;;;;;;;12.90;11.70;;;;;;;10.27;54.63;98968.28;113669;1200;64382;-85
2021/04/02 11:09:34;;;;;;;13.47;12.10;;;;;;;10.23;55.63;98962.28;113732;1199;64471;-83
2021/04/02 11:12:00;;;;;;;13.95;12.65;;;;;;;10.13;55.59;98961.17;113785;1200;64493;-84
2021/04/02 11:14:27;;;;;;;13.77;12.57;;;;;;;9.91;55.38;98969.72;113649;1198;64359;-84
2021/04/02 11:16:54;;;;;;;14.40;13.07;;;;;;;9.64;55.53;98961.70;113687;1199;64385;-84
2021/04/02 11:19:20;;;;;;;12.95;11.85;;;;;;;9.55;55.26;98960.46;113687;1199;64381;-84
2021/04/02 11:21:47;;;;;;;13.60;12.20;;;;;;;9.55;55.59;98962.27;113723;1200;64410;-83
2021/04/02 11:24:13;;;;;;;12.70;11.65;;;;;;;9.59;55.79;98943.36;113789;1199;64384;-84
2021/04/02 11:26:40;;;;;;;14.25;13.05;;;;;;;9.67;55.52;98940.22;113694;1198;64384;-84
2021/04/02 11:29:07;;;;;;;12.80;11.60;;;;;;;9.72;55.65;98951.42;113703;1199;64381;-84
2021/04/02 11:31:34;;;;;;;13.70;12.50;;;;;;;9.80;55.96;98938.48;113754;1199;64378;-84
2021/04/02 11:34:01;;;;;;;13.20;12.00;;;;;;;9.95;55.17;98946.41;113746;1199;64343;-84
2021/04/02 11:36:28;;;;;;;13.65;12.30;;;;;;;9.84;54.54;98939.12;113703;1200;64420;-83
2021/04/02 11:38:55;;;;;;;13.75;12.25;;;;;;;9.75;53.67;98945.05;113640;1200;64366;-83
2021/04/02 11:41:21;;;;;;;11.63;10.50;;;;;;;9.70;53.10;98936.51;113760;1199;64458;-84
2021/04/02 11:43:49;;;;;;;11.10;10.10;;;;;;;9.59;53.45;98940.70;113724;1199;64378;-83
2021/04/02 11:46:16;;;;;;;10.85;9.85;;;;;;;9.59;53.46;98939.86;113567;1199;64471;-83
2021/04/02 11:48:42;;;;;;;11.30;10.40;;;;;;;9.60;53.91;98942.41;113607;1200;64522;-84
2021/04/02 11:51:09;;;;;;;12.60;11.40;;;;;;;9.78;54.01;98947.51;113674;1199;64381;-84
2021/04/02 11:53:36;;;;;;;12.40;11.40;;;;;;;9.91;54.68;98923.62;113664;1199;64576;-82
2021/04/02 11:56:03;;;;;;;12.07;11.03;;;;;;;10.05;53.48;98926.22;113654;1200;64375;-84
2021/04/02 11:58:30;;;;;;;13.50;12.10;;;;;;;10.03;52.55;98925.45;113608;1199;64799;-85
2021/04/02 12:00:56;;;;;;;11.93;10.83;;;;;;;9.97;52.04;98920.55;113665;1200;64378;-85
2021/04/02 12:03:23;;;;;;;12.70;11.60;;;;;;;9.97;52.89;98923.20;113721;1199;64356;-84
2021/04/02 12:05:50;;;;;;;12.13;11.03;;;;;;;10.11;52.65;98916.03;113744;1199;64401;-84
2021/04/02 12:08:17;;;;;;;11.47;10.47;;;;;;;10.12;52.40;98919.54;113693;1199;64355;-85
2021/04/02 12:10:44;;;;;;;11.83;9.93;;;;;;;10.17;52.20;98912.10;113659;1199;64532;-84
2021/04/02 12:13:11;;;;;;;11.73;10.73;;;;;;;10.19;51.77;98915.52;113700;1199;64385;-84
2021/04/02 12:15:38;;;;;;;10.47;9.40;;;;;;;10.23;51.13;98898.36;113676;1199;64439;-85
2021/04/02 12:18:06;;;;;;;10.83;9.83;;;;;;;10.28;51.67;98895.43;113777;1199;64346;-83
2021/04/02 12:20:33;;;;;;;11.05;9.95;;;;;;;10.37;51.92;98884.14;113759;1200;64407;-83
2021/04/02 12:22:59;;;;;;;11.43;10.33;;;;;;;10.53;51.83;98894.60;113753;1200;64464;-84
2021/04/02 12:25:26;;;;;;;11.10;10.03;;;;;;;10.59;50.75;98875.55;113769;1199;64359;-84
2021/04/02 12:27:53;;;;;;;12.15;11.05;;;;;;;10.59;50.29;98869.38;113795;1200;64317;-83